createdAt,value
2018-06-22T00:00:33.298Z,215.30
2018-06-22T00:01:33.328Z,209.40
2018-06-22T00:02:33.356Z,217.50
2018-06-22T00:03:33.424Z,208.40
2018-06-22T00:04:33.462Z,208.90
2018-06-22T00:05:33.496Z,213.00
2018-06-22T00:06:33.579Z,199.70
2018-06-22T00:07:33.613Z,231.00
2018-06-22T00:08:33.677Z,215.40
2018-06-22T00:09:33.722Z,239.60
2018-06-22T00:10:33.752Z,211.90
2018-06-22T00:11:33.790Z,243.20
2018-06-22T00:12:33.829Z,237.80
2018-06-22T00:13:33.896Z,227.00
2018-06-22T00:14:33.935Z,246.50
2018-06-22T00:15:34.176Z,232.00
2018-06-22T00:16:34.025Z,229.70
2018-06-22T00:17:34.066Z,233.50
2018-06-22T00:18:34.144Z,228.10
2018-06-22T00:19:34.184Z,214.30
2018-06-22T00:20:34.209Z,197.20
2018-06-22T00:21:34.255Z,190.40
2018-06-22T00:22:34.300Z,191.70
2018-06-22T00:23:34.361Z,186.90
2018-06-22T00:24:34.366Z,178.50
2018-06-22T00:25:34.477Z,172.80
2018-06-22T00:26:34.477Z,163.80
2018-06-22T00:27:34.542Z,166.40
2018-06-22T00:28:34.567Z,178.30
2018-06-22T00:29:34.612Z,161.20
2018-06-22T00:30:34.675Z,142.30
2018-06-22T00:31:34.710Z,135.30
2018-06-22T00:32:34.756Z,146.50
2018-06-22T00:33:34.803Z,131.60
2018-06-22T00:34:34.866Z,116.10
2018-06-22T00:35:34.910Z,128.00
2018-06-22T00:36:34.953Z,123.50
2018-06-22T00:37:34.992Z,130.30
2018-06-22T00:38:35.048Z,124.20
2018-06-22T00:39:35.085Z,131.60
2018-06-22T00:40:35.123Z,131.30
2018-06-22T00:41:35.173Z,120.50
2018-06-22T00:42:35.228Z,107.40
2018-06-22T00:43:35.296Z,128.00
2018-06-22T00:44:35.324Z,117.50
2018-06-22T00:45:35.371Z,112.70
2018-06-22T00:46:35.403Z,114.60
2018-06-22T00:47:35.455Z,112.80
2018-06-22T00:48:35.501Z,120.70
2018-06-22T00:49:35.562Z,108.70
2018-06-22T00:50:35.593Z,111.40
2018-06-22T00:51:35.651Z,111.80
2018-06-22T00:52:35.681Z,108.10
2018-06-22T00:53:35.718Z,100.20
2018-06-22T00:54:35.788Z,111.70
2018-06-22T00:55:35.834Z,130.60
2018-06-22T00:56:35.866Z,127.30
2018-06-22T00:57:35.900Z,113.80
2018-06-22T00:58:35.979Z,112.70
2018-06-22T00:59:36.006Z,105.20
2018-06-22T01:00:36.037Z,114.90
2018-06-22T01:01:36.091Z,109.20
2018-06-22T01:02:36.154Z,112.10
2018-06-22T01:03:36.189Z,111.20
2018-06-22T01:04:36.238Z,102.80
2018-06-22T01:05:36.279Z,111.50
2018-06-22T01:06:36.329Z,106.70
2018-06-22T01:07:36.411Z,103.60
2018-06-22T01:08:36.423Z,102.40
2018-06-22T01:09:36.470Z,112.20
2018-06-22T01:10:36.507Z,105.90
2018-06-22T01:11:36.572Z,128.60
2018-06-22T01:12:36.598Z,106.50
2018-06-22T01:13:36.665Z,114.50
2018-06-22T01:14:36.721Z,108.20
2018-06-22T01:15:36.772Z,116.70
2018-06-22T01:16:36.826Z,119.00
2018-06-22T01:17:36.857Z,124.40
2018-06-22T01:18:36.903Z,123.30
2018-06-22T01:19:36.979Z,140.20
2018-06-22T01:20:36.982Z,140.70
2018-06-22T01:21:37.040Z,137.20
2018-06-22T01:22:37.074Z,140.60
2018-06-22T01:23:37.156Z,130.00
2018-06-22T01:24:37.169Z,135.60
2018-06-22T01:25:37.251Z,130.20
2018-06-22T01:26:37.272Z,124.80
2018-06-22T01:27:37.306Z,139.00
2018-06-22T01:28:37.368Z,132.20
2018-06-22T01:29:37.419Z,145.80
2018-06-22T01:30:37.466Z,146.20
2018-06-22T01:31:37.521Z,149.10
2018-06-22T01:32:37.546Z,142.90
2018-06-22T01:33:37.572Z,144.10
2018-06-22T01:34:37.644Z,156.80
2018-06-22T01:35:37.679Z,148.30
2018-06-22T01:36:37.738Z,151.00
2018-06-22T01:37:37.798Z,162.80
2018-06-22T01:38:37.812Z,165.20
2018-06-22T01:39:37.871Z,164.30
2018-06-22T01:40:37.918Z,154.80
2018-06-22T01:41:37.968Z,149.70
2018-06-22T01:42:38.026Z,175.00
2018-06-22T01:43:38.042Z,170.50
2018-06-22T01:44:38.085Z,161.70
2018-06-22T01:45:38.147Z,160.70
2018-06-22T01:46:38.199Z,159.10
2018-06-22T01:47:38.239Z,151.00
2018-06-22T01:48:38.281Z,167.70
2018-06-22T01:49:38.329Z,159.90
2018-06-22T01:50:38.375Z,157.00
2018-06-22T01:51:38.419Z,159.30
2018-06-22T01:52:38.485Z,145.40
2018-06-22T01:53:38.496Z,136.20
2018-06-22T01:54:38.566Z,133.70
2018-06-22T01:55:38.621Z,134.50
2018-06-22T01:56:38.655Z,127.80
2018-06-22T01:57:38.682Z,132.50
2018-06-22T01:58:38.725Z,119.00
2018-06-22T01:59:38.787Z,113.30
2018-06-22T02:00:38.850Z,117.60
2018-06-22T02:01:38.860Z,118.00
2018-06-22T02:02:38.953Z,126.40
2018-06-22T02:03:38.962Z,118.10
2018-06-22T02:04:39.018Z,118.30
2018-06-22T02:05:39.125Z,120.80
2018-06-22T02:06:39.099Z,115.60
2018-06-22T02:07:39.154Z,117.10
2018-06-22T02:08:39.228Z,112.50
2018-06-22T02:09:39.248Z,119.50
2018-06-22T02:10:39.516Z,113.90
2018-06-22T02:11:39.352Z,114.10
2018-06-22T02:12:39.392Z,107.10
2018-06-22T02:13:39.451Z,111.30
2018-06-22T02:14:39.475Z,111.80
2018-06-22T02:15:39.534Z,112.70
2018-06-22T02:16:39.554Z,111.10
2018-06-22T02:17:39.622Z,119.10
2018-06-22T02:18:39.677Z,113.10
2018-06-22T02:19:39.729Z,111.70
2018-06-22T02:20:39.767Z,111.30
2018-06-22T02:21:40.019Z,118.10
2018-06-22T02:22:39.848Z,117.60
2018-06-22T02:23:39.911Z,122.00
2018-06-22T02:24:39.950Z,120.90
2018-06-22T02:25:40.009Z,127.00
2018-06-22T02:26:40.041Z,121.00
2018-06-22T02:27:40.088Z,130.10
2018-06-22T02:28:40.130Z,126.00
2018-06-22T02:29:40.183Z,126.40
2018-06-22T02:30:40.222Z,124.60
2018-06-22T02:31:40.257Z,126.70
2018-06-22T02:32:40.301Z,133.90
2018-06-22T02:33:40.375Z,123.20
2018-06-22T02:34:40.393Z,128.60
2018-06-22T02:35:40.447Z,136.70
2018-06-22T02:36:40.476Z,151.70
2018-06-22T02:37:40.733Z,143.90
2018-06-22T02:38:40.585Z,139.00
2018-06-22T02:39:40.623Z,150.90
2018-06-22T02:40:40.673Z,153.90
2018-06-22T02:41:40.714Z,163.60
2018-06-22T02:42:40.787Z,141.60
2018-06-22T02:43:40.806Z,175.60
2018-06-22T02:44:40.872Z,167.50
2018-06-22T02:45:40.941Z,172.70
2018-06-22T02:46:41.008Z,167.60
2018-06-22T02:47:41.017Z,166.20
2018-06-22T02:48:41.064Z,173.60
2018-06-22T02:49:41.115Z,166.40
2018-06-22T02:50:41.147Z,176.90
2018-06-22T02:51:41.167Z,180.90
2018-06-22T02:52:41.240Z,188.30
2018-06-22T02:53:41.392Z,190.60
2018-06-22T02:54:41.325Z,187.50
2018-06-22T02:55:41.356Z,226.40
2018-06-22T02:56:41.410Z,211.30
2018-06-22T02:57:41.443Z,212.00
2018-06-22T02:58:41.521Z,226.10
2018-06-22T02:59:41.593Z,217.90
2018-06-22T03:00:41.812Z,236.30
2018-06-22T03:01:41.671Z,238.30
2018-06-22T03:02:41.704Z,245.50
2018-06-22T03:03:41.763Z,236.60
2018-06-22T03:04:41.795Z,241.20
2018-06-22T03:05:41.907Z,257.10
2018-06-22T03:06:41.879Z,270.00
2018-06-22T03:07:41.898Z,259.00
2018-06-22T03:08:41.980Z,274.90
2018-06-22T03:09:42.021Z,273.50
2018-06-22T03:10:42.062Z,298.70
2018-06-22T03:11:42.295Z,322.00
2018-06-22T03:12:42.159Z,324.70
2018-06-22T03:13:42.173Z,324.00
2018-06-22T03:14:42.257Z,354.10
2018-06-22T03:15:42.276Z,349.10
2018-06-22T03:16:42.359Z,347.10
2018-06-22T03:17:42.374Z,341.20
2018-06-22T03:18:42.429Z,361.00
2018-06-22T03:19:42.454Z,355.00
2018-06-22T03:20:42.498Z,380.90
2018-06-22T03:21:42.656Z,383.30
2018-06-22T03:22:42.592Z,399.60
2018-06-22T03:23:42.652Z,389.70
2018-06-22T03:24:42.691Z,418.30
2018-06-22T03:25:42.733Z,430.40
2018-06-22T03:26:42.983Z,445.20
2018-06-22T03:27:42.821Z,452.10
2018-06-22T03:28:42.862Z,504.80
2018-06-22T03:29:42.931Z,529.30
2018-06-22T03:30:42.997Z,559.50
2018-06-22T03:31:43.004Z,562.60
2018-06-22T03:32:43.168Z,605.50
2018-06-22T03:33:43.107Z,618.40
2018-06-22T03:34:43.138Z,621.90
2018-06-22T03:35:43.174Z,646.00
2018-06-22T03:36:43.218Z,676.50
2018-06-22T03:37:43.284Z,702.90
2018-06-22T03:38:43.324Z,752.90
2018-06-22T03:39:43.461Z,743.80
2018-06-22T03:40:43.401Z,753.60
2018-06-22T03:41:43.468Z,750.30
2018-06-22T03:42:43.480Z,768.00
2018-06-22T03:43:43.545Z,768.60
2018-06-22T03:44:43.800Z,804.10
2018-06-22T03:45:43.660Z,793.20
2018-06-22T03:46:43.667Z,816.50
2018-06-22T03:47:43.705Z,809.40
2018-06-22T03:48:43.783Z,795.10
2018-06-22T03:49:43.818Z,797.20
2018-06-22T03:50:43.948Z,783.70
2018-06-22T03:51:43.915Z,789.30
2018-06-22T03:52:43.971Z,794.00
2018-06-22T03:53:43.997Z,780.30
2018-06-22T03:54:44.044Z,742.30
2018-06-22T03:55:44.082Z,782.10
2018-06-22T03:56:44.368Z,795.00
2018-06-22T03:57:44.158Z,814.00
2018-06-22T03:58:44.237Z,815.10
2018-06-22T03:59:44.264Z,801.20
2018-06-22T04:00:44.287Z,817.00
2018-06-22T04:01:44.342Z,771.10
2018-06-22T04:02:44.424Z,799.20
2018-06-22T04:03:44.453Z,776.00
2018-06-22T04:04:44.495Z,799.10
2018-06-22T04:05:44.540Z,796.70
2018-06-22T04:06:44.589Z,788.90
2018-06-22T04:07:44.641Z,799.20
2018-06-22T04:08:44.686Z,846.60
2018-06-22T04:09:44.695Z,898.70
2018-06-22T04:10:44.754Z,869.90
2018-06-22T04:11:44.803Z,834.70
2018-06-22T04:12:44.872Z,834.90
2018-06-22T04:13:44.880Z,850.80
2018-06-22T04:14:44.929Z,845.50
2018-06-22T04:15:44.962Z,828.60
2018-06-22T04:16:45.050Z,786.80
2018-06-22T04:17:45.068Z,815.20
2018-06-22T04:18:45.123Z,817.70
2018-06-22T04:19:45.189Z,854.40
2018-06-22T04:20:45.195Z,838.20
2018-06-22T04:21:45.273Z,830.00
2018-06-22T04:22:45.280Z,850.70
2018-06-22T04:23:45.319Z,876.70
2018-06-22T04:24:45.582Z,881.70
2018-06-22T04:25:45.444Z,869.80
2018-06-22T04:26:45.464Z,884.00
2018-06-22T04:27:45.528Z,861.50
2018-06-22T04:28:45.558Z,840.10
2018-06-22T04:29:45.592Z,866.30
2018-06-22T04:30:45.634Z,888.90
2018-06-22T04:31:45.666Z,879.90
2018-06-22T04:32:45.733Z,891.20
2018-06-22T04:33:45.770Z,864.30
2018-06-22T04:34:45.827Z,903.80
2018-06-22T04:35:46.061Z,885.90
2018-06-22T04:36:45.910Z,881.60
2018-06-22T04:37:45.969Z,869.40
2018-06-22T04:38:46.053Z,862.70
2018-06-22T04:39:46.046Z,889.40
2018-06-22T04:40:46.084Z,882.40
2018-06-22T04:41:46.142Z,872.90
2018-06-22T04:42:46.191Z,887.90
2018-06-22T04:43:46.221Z,875.00
2018-06-22T04:44:46.249Z,877.70
2018-06-22T04:45:46.302Z,881.20
2018-06-22T04:46:46.327Z,859.70
2018-06-22T04:47:46.772Z,859.80
2018-06-22T04:48:46.428Z,865.00
2018-06-22T04:49:46.492Z,866.20
2018-06-22T04:50:46.532Z,853.10
2018-06-22T04:51:46.570Z,836.70
2018-06-22T04:52:46.623Z,848.40
2018-06-22T04:53:46.663Z,831.60
2018-06-22T04:54:46.726Z,851.70
2018-06-22T04:55:46.756Z,901.60
2018-06-22T04:56:46.770Z,883.10
2018-06-22T04:57:46.848Z,866.20
2018-06-22T04:58:46.872Z,903.90
2018-06-22T04:59:46.952Z,862.90
2018-06-22T05:00:46.969Z,876.50
2018-06-22T05:01:46.992Z,914.10
2018-06-22T05:02:47.076Z,913.20
2018-06-22T05:03:47.315Z,925.10
2018-06-22T05:04:47.143Z,907.40
2018-06-22T05:05:47.230Z,901.00
2018-06-22T05:06:47.235Z,910.10
2018-06-22T05:07:47.303Z,862.40
2018-06-22T05:08:47.317Z,901.00
2018-06-22T05:09:47.359Z,882.00
2018-06-22T05:10:47.639Z,884.30
2018-06-22T05:11:47.477Z,878.70
2018-06-22T05:12:47.523Z,888.40
2018-06-22T05:13:47.548Z,888.20
2018-06-22T05:14:47.583Z,869.00
2018-06-22T05:15:47.697Z,858.80
2018-06-22T05:16:47.680Z,891.50
2018-06-22T05:17:47.705Z,901.90
2018-06-22T05:18:47.758Z,889.90
2018-06-22T05:19:47.800Z,884.00
2018-06-22T05:20:47.866Z,846.10
2018-06-22T05:21:48.157Z,848.20
2018-06-22T05:22:47.954Z,866.60
2018-06-22T05:23:47.994Z,866.00
2018-06-22T05:24:48.098Z,836.30
2018-06-22T05:25:48.106Z,817.00
2018-06-22T05:26:48.118Z,840.80
2018-06-22T05:27:48.164Z,831.60
2018-06-22T05:28:48.211Z,825.90
2018-06-22T05:29:48.257Z,854.10
2018-06-22T05:30:48.330Z,832.30
2018-06-22T05:31:48.339Z,840.70
2018-06-22T05:32:48.381Z,840.30
2018-06-22T05:33:48.615Z,833.60
2018-06-22T05:34:48.456Z,820.30
2018-06-22T05:35:48.518Z,832.60
2018-06-22T05:36:48.574Z,841.00
2018-06-22T05:37:48.588Z,803.20
2018-06-22T05:38:48.675Z,814.70
2018-06-22T05:39:48.718Z,828.60
2018-06-22T05:40:48.729Z,821.40
2018-06-22T05:41:48.778Z,839.90
2018-06-22T05:42:48.821Z,823.40
2018-06-22T05:43:48.864Z,823.60
2018-06-22T05:44:49.118Z,830.70
2018-06-22T05:45:48.945Z,811.20
2018-06-22T05:46:49.028Z,828.00
2018-06-22T05:47:49.025Z,816.80
2018-06-22T05:48:49.106Z,846.40
2018-06-22T05:49:49.125Z,813.10
2018-06-22T05:50:49.265Z,821.40
2018-06-22T05:51:49.232Z,818.50
2018-06-22T05:52:49.281Z,843.90
2018-06-22T05:53:49.301Z,857.20
2018-06-22T05:54:49.358Z,859.40
2018-06-22T05:55:49.390Z,838.40
2018-06-22T05:56:49.702Z,847.60
2018-06-22T05:57:49.480Z,814.50
2018-06-22T05:58:49.514Z,831.90
2018-06-22T05:59:49.566Z,820.10
2018-06-22T06:00:49.629Z,811.20
2018-06-22T06:01:49.633Z,815.20
2018-06-22T06:02:49.682Z,840.30
2018-06-22T06:03:49.733Z,826.20
2018-06-22T06:04:49.756Z,812.50
2018-06-22T06:05:49.832Z,802.90
2018-06-22T06:06:49.884Z,815.00
2018-06-22T06:07:49.915Z,815.40
2018-06-22T06:08:50.158Z,815.90
2018-06-22T06:09:49.972Z,813.80
2018-06-22T06:10:50.047Z,821.40
2018-06-22T06:11:50.116Z,809.00
2018-06-22T06:12:50.111Z,813.40
2018-06-22T06:13:50.188Z,836.80
2018-06-22T06:14:50.233Z,833.30
2018-06-22T06:15:50.241Z,830.60
2018-06-22T06:16:50.294Z,880.70
2018-06-22T06:17:50.356Z,842.40
2018-06-22T06:18:50.398Z,822.90
2018-06-22T06:19:50.431Z,846.10
2018-06-22T06:20:50.486Z,832.60
2018-06-22T06:21:50.537Z,822.20
2018-06-22T06:22:50.571Z,826.80
2018-06-22T06:23:50.604Z,846.90
2018-06-22T06:24:50.639Z,842.20
2018-06-22T06:25:50.720Z,834.60
2018-06-22T06:26:50.759Z,832.50
2018-06-22T06:27:50.802Z,828.70
2018-06-22T06:28:50.819Z,801.30
2018-06-22T06:29:50.869Z,798.90
2018-06-22T06:30:50.909Z,792.70
2018-06-22T06:31:50.969Z,829.70
2018-06-22T06:32:51.012Z,844.00
2018-06-22T06:33:51.055Z,842.70
2018-06-22T06:34:51.105Z,839.30
2018-06-22T06:35:51.159Z,849.10
2018-06-22T06:36:51.196Z,843.10
2018-06-22T06:37:51.233Z,843.50
2018-06-22T06:38:51.286Z,826.90
2018-06-22T06:39:51.518Z,818.00
2018-06-22T06:40:51.354Z,811.30
2018-06-22T06:41:51.479Z,802.60
2018-06-22T06:42:51.426Z,818.00
2018-06-22T06:43:51.479Z,820.70
2018-06-22T06:44:51.523Z,814.10
2018-06-22T06:45:51.573Z,819.30
2018-06-22T06:46:51.609Z,825.40
2018-06-22T06:47:51.645Z,804.60
2018-06-22T06:48:51.686Z,800.70
2018-06-22T06:49:51.737Z,791.10
2018-06-22T06:50:51.783Z,814.80
2018-06-22T06:51:52.054Z,786.80
2018-06-22T06:52:51.856Z,767.20
2018-06-22T06:53:51.898Z,832.50
2018-06-22T06:54:51.989Z,792.10
2018-06-22T06:55:52.010Z,792.70
2018-06-22T06:56:52.096Z,798.10
2018-06-22T06:57:52.114Z,791.40
2018-06-22T06:58:52.128Z,795.00
2018-06-22T06:59:52.172Z,802.70
2018-06-22T07:00:52.219Z,797.40
2018-06-22T07:01:52.269Z,793.80
2018-06-22T07:02:52.329Z,811.90
2018-06-22T07:03:52.563Z,809.50
2018-06-22T07:04:52.391Z,810.60
2018-06-22T07:05:52.425Z,816.50
2018-06-22T07:06:52.475Z,843.30
2018-06-22T07:07:52.523Z,814.60
2018-06-22T07:08:52.578Z,813.00
2018-06-22T07:09:52.608Z,818.50
2018-06-22T07:10:52.630Z,800.20
2018-06-22T07:11:52.709Z,827.10
2018-06-22T07:12:52.766Z,861.40
2018-06-22T07:13:52.791Z,827.10
2018-06-22T07:14:52.821Z,837.20
2018-06-22T07:15:52.869Z,811.70
2018-06-22T07:16:52.897Z,826.20
2018-06-22T07:17:52.961Z,801.50
2018-06-22T07:18:53.197Z,818.00
2018-06-22T07:19:53.039Z,826.90
2018-06-22T07:20:53.096Z,819.30
2018-06-22T07:21:53.147Z,805.20
2018-06-22T07:22:53.204Z,800.10
2018-06-22T07:23:53.215Z,816.80
2018-06-22T07:24:53.257Z,809.60
2018-06-22T07:25:53.308Z,817.30
2018-06-22T07:26:53.380Z,808.10
2018-06-22T07:27:53.371Z,789.10
2018-06-22T07:28:53.453Z,817.10
2018-06-22T07:29:53.485Z,843.70
2018-06-22T07:30:53.702Z,835.20
2018-06-22T07:31:53.592Z,826.00
2018-06-22T07:32:53.608Z,815.60
2018-06-22T07:33:53.665Z,846.90
2018-06-22T07:34:53.679Z,832.30
2018-06-22T07:35:53.738Z,839.30
2018-06-22T07:36:53.776Z,888.90
2018-06-22T07:37:53.827Z,882.70
2018-06-22T07:38:53.870Z,886.10
2018-06-22T07:39:53.937Z,893.40
2018-06-22T07:40:53.948Z,908.50
2018-06-22T07:41:54.001Z,928.20
2018-06-22T07:42:54.263Z,956.50
2018-06-22T07:43:54.093Z,969.00
2018-06-22T07:44:54.140Z,993.40
2018-06-22T07:45:54.151Z,957.00
2018-06-22T07:46:54.220Z,1009.70
2018-06-22T07:47:54.269Z,1007.60
2018-06-22T07:48:54.298Z,1008.10
2018-06-22T07:49:54.388Z,994.20
2018-06-22T07:50:54.372Z,996.30
2018-06-22T07:51:54.418Z,980.10
2018-06-22T07:52:54.488Z,1003.00
2018-06-22T07:53:54.520Z,1008.00
2018-06-22T07:54:54.785Z,990.10
2018-06-22T07:55:54.585Z,1010.30
2018-06-22T07:56:54.646Z,982.70
2018-06-22T07:57:54.762Z,1039.70
2018-06-22T07:58:54.730Z,1003.50
2018-06-22T07:59:54.786Z,983.00
2018-06-22T08:00:54.811Z,993.40
2018-06-22T08:01:54.858Z,993.20
2018-06-22T08:02:54.929Z,981.20
2018-06-22T08:03:54.946Z,962.20
2018-06-22T08:04:55.003Z,968.90
2018-06-22T08:05:55.237Z,945.40
2018-06-22T08:06:55.078Z,943.60
2018-06-22T08:07:55.148Z,924.20
2018-06-22T08:08:55.159Z,959.70
2018-06-22T08:09:55.196Z,951.70
2018-06-22T08:10:55.243Z,934.60
2018-06-22T08:11:55.301Z,899.70
2018-06-22T08:12:55.323Z,866.20
2018-06-22T08:13:55.399Z,847.60
2018-06-22T08:14:55.447Z,825.50
2018-06-22T08:15:55.461Z,844.50
2018-06-22T08:16:55.523Z,852.90
2018-06-22T08:17:55.560Z,873.70
2018-06-22T08:18:55.599Z,908.20
2018-06-22T08:19:55.633Z,834.30
2018-06-22T08:20:55.685Z,826.20
2018-06-22T08:21:55.983Z,793.60
2018-06-22T08:22:55.762Z,819.90
2018-06-22T08:23:55.802Z,833.30
2018-06-22T08:24:55.858Z,816.10
2018-06-22T08:25:55.883Z,823.10
2018-06-22T08:26:55.990Z,845.80
2018-06-22T08:27:55.966Z,827.80
2018-06-22T08:28:56.012Z,814.70
2018-06-22T08:29:56.052Z,856.20
2018-06-22T08:30:56.089Z,886.30
2018-06-22T08:31:56.161Z,878.20
2018-06-22T08:32:56.183Z,888.70
2018-06-22T08:33:56.437Z,921.40
2018-06-22T08:34:56.295Z,920.30
2018-06-22T08:35:56.315Z,943.60
2018-06-22T08:36:56.339Z,933.20
2018-06-22T08:37:56.443Z,923.10
2018-06-22T08:38:56.458Z,956.80
2018-06-22T08:39:56.487Z,961.80
2018-06-22T08:40:56.531Z,955.20
2018-06-22T08:41:56.757Z,968.70
2018-06-22T08:42:56.640Z,972.50
2018-06-22T08:43:56.650Z,956.00
2018-06-22T08:44:56.700Z,946.00
2018-06-22T08:45:56.754Z,946.40
2018-06-22T08:46:56.778Z,936.70
2018-06-22T08:47:56.844Z,930.60
2018-06-22T08:48:56.886Z,953.90
2018-06-22T08:49:56.914Z,908.40
2018-06-22T08:50:56.970Z,914.40
2018-06-22T08:51:57.005Z,904.30
2018-06-22T08:52:57.046Z,900.60
2018-06-22T08:53:57.073Z,892.40
2018-06-22T08:54:57.145Z,905.60
2018-06-22T08:55:57.173Z,891.00
2018-06-22T08:56:57.196Z,892.70
2018-06-22T08:57:57.245Z,893.20
2018-06-22T08:58:57.299Z,878.40
2018-06-22T08:59:57.613Z,854.20
2018-06-22T09:00:57.398Z,873.70
2018-06-22T09:01:57.442Z,889.60
2018-06-22T09:02:57.478Z,886.70
2018-06-22T09:03:57.511Z,911.00
2018-06-22T09:04:57.540Z,925.40
2018-06-22T09:05:57.594Z,930.90
2018-06-22T09:06:57.611Z,924.70
2018-06-22T09:07:57.666Z,954.80
2018-06-22T09:08:57.694Z,936.20
2018-06-22T09:09:57.768Z,971.00
2018-06-22T09:10:57.820Z,930.30
2018-06-22T09:11:57.837Z,956.10
2018-06-22T09:12:57.878Z,978.90
2018-06-22T09:13:57.929Z,972.50
2018-06-22T09:14:57.946Z,969.00
2018-06-22T09:15:58.020Z,963.20
2018-06-22T09:16:58.045Z,978.90
2018-06-22T09:17:58.105Z,974.40
2018-06-22T09:18:58.152Z,973.60
2018-06-22T09:19:58.436Z,965.50
2018-06-22T09:20:58.262Z,957.50
2018-06-22T09:21:58.270Z,991.50
2018-06-22T09:22:58.312Z,973.90
2018-06-22T09:23:58.344Z,968.90
2018-06-22T09:24:58.394Z,985.40
2018-06-22T09:25:58.441Z,1000.10
2018-06-22T09:26:58.483Z,985.40
2018-06-22T09:27:58.507Z,968.50
2018-06-22T09:28:58.590Z,981.30
2018-06-22T09:29:58.600Z,984.20
2018-06-22T09:30:58.655Z,994.80
2018-06-22T09:31:58.884Z,978.50
2018-06-22T09:32:58.707Z,994.90
2018-06-22T09:33:58.757Z,988.40
2018-06-22T09:34:58.825Z,998.30
2018-06-22T09:35:58.867Z,993.70
2018-06-22T09:36:58.904Z,977.50
2018-06-22T09:37:58.935Z,983.60
2018-06-22T09:38:58.999Z,999.30
2018-06-22T09:39:58.998Z,994.40
2018-06-22T09:40:59.056Z,969.70
2018-06-22T09:41:59.125Z,964.30
2018-06-22T09:42:59.376Z,968.60
2018-06-22T09:43:59.201Z,993.90
2018-06-22T09:44:59.237Z,989.50
2018-06-22T09:45:59.269Z,997.40
2018-06-22T09:46:59.323Z,974.10
2018-06-22T09:47:59.342Z,991.00
2018-06-22T09:48:59.398Z,963.10
2018-06-22T09:49:59.457Z,949.90
2018-06-22T09:50:59.484Z,945.20
2018-06-22T09:51:59.537Z,919.50
2018-06-22T09:52:59.630Z,935.50
2018-06-22T09:53:59.633Z,915.40
2018-06-22T09:54:59.643Z,880.70
2018-06-22T09:55:59.698Z,900.00
2018-06-22T09:56:59.741Z,912.40
2018-06-22T09:57:59.768Z,926.50
2018-06-22T09:58:59.795Z,932.70
2018-06-22T09:59:59.886Z,952.80
2018-06-22T10:00:59.888Z,941.20
2018-06-22T10:01:59.939Z,947.70
2018-06-22T10:02:59.973Z,946.10
2018-06-22T10:04:00.032Z,969.10
2018-06-22T10:05:00.077Z,976.30
2018-06-22T10:06:00.176Z,964.40
2018-06-22T10:07:00.159Z,977.60
2018-06-22T10:08:00.188Z,978.90
2018-06-22T10:09:00.254Z,984.10
2018-06-22T10:10:00.285Z,983.70
2018-06-22T10:11:00.537Z,975.20
2018-06-22T10:12:00.374Z,941.50
2018-06-22T10:13:00.403Z,934.60
2018-06-22T10:14:00.459Z,961.50
2018-06-22T10:15:00.488Z,940.90
2018-06-22T10:16:00.531Z,929.40
2018-06-22T10:17:00.574Z,922.80
2018-06-22T10:18:00.617Z,934.00
2018-06-22T10:19:00.646Z,926.50
2018-06-22T10:20:00.722Z,928.70
2018-06-22T10:21:00.748Z,934.60
2018-06-22T10:22:00.981Z,911.50
2018-06-22T10:23:00.828Z,903.70
2018-06-22T10:24:00.877Z,912.50
2018-06-22T10:25:00.913Z,895.40
2018-06-22T10:26:00.943Z,891.40
2018-06-22T10:27:01.073Z,895.10
2018-06-22T10:28:01.058Z,865.60
2018-06-22T10:29:01.118Z,856.80
2018-06-22T10:30:01.137Z,824.10
2018-06-22T10:31:01.199Z,823.10
2018-06-22T10:32:01.231Z,789.80
2018-06-22T10:33:01.481Z,778.10
2018-06-22T10:34:01.343Z,752.60
2018-06-22T10:35:01.369Z,766.30
2018-06-22T10:36:01.405Z,695.90
2018-06-22T10:37:01.428Z,736.90
2018-06-22T10:38:01.467Z,717.50
2018-06-22T10:39:01.539Z,723.60
2018-06-22T10:40:01.583Z,707.20
2018-06-22T10:41:01.622Z,674.30
2018-06-22T10:42:01.646Z,644.80
2018-06-22T10:43:01.704Z,629.40
2018-06-22T10:44:01.750Z,540.20
2018-06-22T10:45:01.789Z,518.20
2018-06-22T10:46:01.884Z,488.50
2018-06-22T10:47:01.884Z,512.80
2018-06-22T10:48:01.914Z,556.50
2018-06-22T10:49:02.177Z,515.30
2018-06-22T10:50:02.027Z,484.40
2018-06-22T10:51:02.060Z,491.80
2018-06-22T10:52:02.102Z,458.50
2018-06-22T10:53:02.178Z,431.50
2018-06-22T10:54:02.204Z,418.50
2018-06-22T10:55:02.239Z,403.60
2018-06-22T10:56:02.314Z,411.40
2018-06-22T10:57:02.340Z,269.70
2018-06-22T10:58:02.388Z,70.20
2018-06-22T10:59:02.427Z,63.40
2018-06-22T11:00:02.543Z,65.20
2018-06-22T11:01:02.522Z,66.80
2018-06-22T11:02:02.591Z,61.50
2018-06-22T11:03:02.631Z,63.50
2018-06-22T11:04:02.675Z,64.20
2018-06-22T11:05:02.699Z,63.10
2018-06-22T11:06:02.763Z,62.30
2018-06-22T11:07:02.808Z,63.60
2018-06-22T11:08:02.867Z,69.10
2018-06-22T11:09:02.935Z,66.20
2018-06-22T11:10:02.950Z,60.00
2018-06-22T11:11:02.982Z,57.10
2018-06-22T11:12:03.032Z,64.60
2018-06-22T11:13:03.107Z,51.10
2018-06-22T11:14:03.180Z,56.10
2018-06-22T11:15:03.169Z,66.90
2018-06-22T11:16:03.260Z,65.40
2018-06-22T11:17:03.416Z,66.50
2018-06-22T11:18:03.327Z,74.00
2018-06-22T11:19:03.401Z,69.70
2018-06-22T11:20:03.416Z,70.60
2018-06-22T11:21:03.505Z,74.70
2018-06-22T11:22:03.508Z,75.70
2018-06-22T11:23:03.574Z,78.60
2018-06-22T11:24:03.652Z,78.00
2018-06-22T11:25:03.691Z,85.20
2018-06-22T11:26:03.726Z,89.40
2018-06-22T11:27:03.767Z,82.40
2018-06-22T11:28:03.798Z,67.20
2018-06-22T11:29:03.873Z,66.70
2018-06-22T11:30:03.911Z,69.10
2018-06-22T11:31:03.956Z,76.60
2018-06-22T11:32:03.981Z,65.20
2018-06-22T11:33:04.060Z,67.00
2018-06-22T11:34:04.109Z,62.00
2018-06-22T11:35:04.137Z,72.30
2018-06-22T11:36:04.185Z,58.70
2018-06-22T11:37:04.245Z,66.60
2018-06-22T11:38:04.290Z,61.00
2018-06-22T11:39:04.320Z,68.90
2018-06-22T11:40:04.396Z,63.10
2018-06-22T11:41:04.439Z,63.50
2018-06-22T11:42:04.465Z,55.70
2018-06-22T11:43:04.724Z,64.70
2018-06-22T11:44:04.565Z,71.00
2018-06-22T11:45:04.616Z,67.60
2018-06-22T11:46:04.647Z,64.00
2018-06-22T11:47:04.708Z,56.30
2018-06-22T11:48:04.779Z,63.20
2018-06-22T11:49:04.832Z,65.90
2018-06-22T11:50:04.850Z,67.00
2018-06-22T11:51:04.983Z,66.80
2018-06-22T11:52:04.955Z,65.00
2018-06-22T11:53:04.996Z,62.90
2018-06-22T11:54:05.055Z,61.00
2018-06-22T11:55:05.077Z,73.40
2018-06-22T11:56:05.167Z,73.40
2018-06-22T11:57:05.179Z,68.40
2018-06-22T11:58:05.243Z,70.30
2018-06-22T11:59:05.349Z,77.60
2018-06-22T12:00:05.354Z,88.70
2018-06-22T12:01:05.391Z,94.10
2018-06-22T12:02:05.427Z,92.60
2018-06-22T12:03:05.482Z,86.90
2018-06-22T12:04:05.533Z,83.60
2018-06-22T12:05:05.568Z,117.80
2018-06-22T12:06:05.641Z,107.00
2018-06-22T12:07:05.691Z,116.40
2018-06-22T12:08:05.719Z,118.00
2018-06-22T12:09:05.776Z,97.80
2018-06-22T12:10:05.860Z,84.60
2018-06-22T12:11:05.866Z,81.40
2018-06-22T12:12:05.921Z,71.00
2018-06-22T12:13:05.966Z,94.80
2018-06-22T12:14:06.028Z,90.60
2018-06-22T12:15:06.075Z,120.30
2018-06-22T12:16:06.107Z,100.90
2018-06-22T12:17:06.192Z,95.50
2018-06-22T12:18:06.236Z,80.00
2018-06-22T12:19:06.341Z,112.30
2018-06-22T12:20:06.334Z,121.00
2018-06-22T12:21:06.383Z,112.60
2018-06-22T12:22:06.454Z,136.90
2018-06-22T12:23:06.464Z,119.00
2018-06-22T12:24:06.525Z,150.00
2018-06-22T12:25:06.586Z,161.40
2018-06-22T12:26:06.825Z,102.00
2018-06-22T12:27:06.682Z,112.30
2018-06-22T12:28:06.704Z,101.80
2018-06-22T12:29:06.765Z,168.00
2018-06-22T12:30:06.830Z,131.90
2018-06-22T12:31:06.868Z,145.80